createdAt,value
2016-12-28T00:00:54.158Z,0.66
2016-12-28T00:02:02.859Z,0.63
2016-12-28T00:03:11.552Z,0.67
2016-12-28T00:04:20.247Z,0.58
2016-12-28T00:05:28.944Z,0.56
2016-12-28T00:06:37.956Z,0.67
2016-12-28T00:07:46.654Z,0.67
2016-12-28T00:08:55.349Z,0.63
2016-12-28T00:10:04.042Z,0.7
2016-12-28T00:11:12.741Z,0.66
2016-12-28T00:12:21.440Z,0.64
2016-12-28T00:13:30.136Z,0.71
2016-12-28T00:14:38.830Z,0.73
2016-12-28T00:15:47.552Z,0.64
2016-12-28T00:16:56.250Z,0.68
2016-12-28T00:18:04.948Z,0.68
2016-12-28T00:19:13.647Z,0.66
2016-12-28T00:20:22.339Z,0.68
2016-12-28T00:21:31.036Z,0.58
2016-12-28T00:22:39.735Z,0.55
2016-12-28T00:23:48.434Z,0.68
2016-12-28T00:24:57.132Z,0.67
2016-12-28T00:26:05.828Z,0.67
2016-12-28T00:27:14.526Z,0.73
2016-12-28T00:28:23.225Z,0.74
2016-12-28T00:29:31.927Z,0.78
2016-12-28T00:30:40.622Z,0.85
2016-12-28T00:31:49.316Z,0.86
2016-12-28T00:32:58.011Z,0.84
2016-12-28T00:34:06.727Z,0.91
2016-12-28T00:35:15.438Z,0.94
2016-12-28T00:36:24.133Z,0.95
2016-12-28T00:37:32.829Z,1.02
2016-12-28T00:38:41.843Z,0.99
2016-12-28T00:39:50.539Z,0.96
2016-12-28T00:40:59.239Z,1.02
2016-12-28T00:42:07.943Z,1.02
2016-12-28T00:43:16.638Z,1.02
2016-12-28T00:44:25.333Z,1.03
2016-12-28T00:45:34.034Z,0.99
2016-12-28T00:46:42.758Z,0.94
2016-12-28T00:47:51.451Z,1.03
2016-12-28T00:49:00.146Z,0.99
2016-12-28T00:50:08.844Z,1.04
2016-12-28T00:51:17.537Z,0.99
2016-12-28T00:52:26.233Z,1
2016-12-28T00:53:34.925Z,0.95
2016-12-28T00:54:43.622Z,0.94
2016-12-28T00:55:52.318Z,0.92
2016-12-28T00:57:01.015Z,0.95
2016-12-28T00:58:10.024Z,0.89
2016-12-28T00:59:18.716Z,0.84
2016-12-28T01:00:27.410Z,0.95
2016-12-28T01:01:36.106Z,1
2016-12-28T01:02:44.803Z,1.02
2016-12-28T01:03:53.497Z,1
2016-12-28T01:05:02.199Z,1.07
2016-12-28T01:06:10.895Z,1.02
2016-12-28T01:07:19.586Z,1.02
2016-12-28T01:08:28.283Z,1.02
2016-12-28T01:09:37.010Z,1.06
2016-12-28T01:10:45.735Z,0.99
2016-12-28T01:11:54.456Z,1.02
2016-12-28T01:13:03.157Z,1.02
2016-12-28T01:14:11.855Z,1.09
2016-12-28T01:15:20.554Z,1.04
2016-12-28T01:16:29.246Z,1.06
2016-12-28T01:17:37.946Z,1.22
2016-12-28T01:18:46.641Z,1.1
2016-12-28T01:19:55.660Z,1.22
2016-12-28T01:21:04.352Z,1.25
2016-12-28T01:22:13.056Z,1.25
2016-12-28T01:23:21.750Z,1.36
2016-12-28T01:24:30.445Z,1.22
2016-12-28T01:25:39.138Z,1.25
2016-12-28T01:26:47.829Z,1.28
2016-12-28T01:27:56.552Z,1.22
2016-12-28T01:29:05.249Z,1.21
2016-12-28T01:30:13.946Z,1.03
2016-12-28T01:31:22.676Z,1.03
2016-12-28T01:32:31.369Z,0.88
2016-12-28T01:33:40.061Z,0.81
2016-12-28T01:34:48.757Z,0.81
2016-12-28T01:35:57.449Z,0.71
2016-12-28T01:37:06.146Z,0.71
2016-12-28T01:38:14.838Z,0.66
2016-12-28T01:39:23.532Z,0.67
2016-12-28T01:40:32.255Z,0.63
2016-12-28T01:41:41.263Z,0.64
2016-12-28T01:42:49.963Z,0.49
2016-12-28T01:43:58.661Z,0.51
2016-12-28T01:45:07.378Z,0.51
2016-12-28T01:46:16.070Z,0.44
2016-12-28T01:47:24.766Z,0.29
2016-12-28T01:48:33.468Z,0.42
2016-12-28T01:49:42.166Z,0.34
2016-12-28T01:50:50.867Z,0.42
2016-12-28T01:51:59.566Z,0.42
2016-12-28T01:53:08.262Z,0.37
2016-12-28T01:54:16.958Z,0.4
2016-12-28T01:55:25.654Z,0.34
2016-12-28T01:56:34.350Z,0.4
2016-12-28T01:57:43.043Z,0.34
2016-12-28T01:58:51.739Z,0.34
2016-12-28T02:00:00.431Z,0.39
2016-12-28T02:01:09.127Z,0.39
2016-12-28T02:02:18.195Z,0.37
2016-12-28T02:03:26.888Z,0.31
2016-12-28T02:04:35.581Z,0.31
2016-12-28T02:05:44.272Z,0.3
2016-12-28T02:06:52.962Z,0.27
2016-12-28T02:08:01.655Z,0.18
2016-12-28T02:09:10.357Z,0.2
2016-12-28T02:10:19.369Z,0.13
2016-12-28T02:11:28.061Z,0.06
2016-12-28T02:12:36.764Z,0.05
2016-12-28T02:13:45.466Z,0.01
2016-12-28T02:14:54.160Z,0.09
2016-12-28T02:16:02.857Z,-0.07
2016-12-28T02:17:11.550Z,-0.03
2016-12-28T02:18:20.245Z,-0.09
2016-12-28T02:19:28.942Z,-0.2
2016-12-28T02:20:37.639Z,-0.28
2016-12-28T02:21:46.336Z,-0.33
2016-12-28T02:22:55.029Z,-0.21
2016-12-28T02:24:03.720Z,-0.17
2016-12-28T02:25:12.420Z,-0.18
2016-12-28T02:26:21.115Z,-0.3
2016-12-28T02:27:29.836Z,-0.26
2016-12-28T02:28:38.530Z,-0.36
2016-12-28T02:29:47.231Z,-0.45
2016-12-28T02:30:55.926Z,-0.36
2016-12-28T02:32:04.624Z,-0.41
2016-12-28T02:33:13.317Z,-0.48
2016-12-28T02:34:22.008Z,-0.38
2016-12-28T02:35:30.709Z,-0.46
2016-12-28T02:36:39.423Z,-0.45
2016-12-28T02:37:48.123Z,-0.46
2016-12-28T02:38:56.816Z,-0.53
2016-12-28T02:40:05.519Z,-0.56
2016-12-28T02:41:14.212Z,-0.62
2016-12-28T02:42:22.951Z,-0.62
2016-12-28T02:43:31.648Z,-0.57
2016-12-28T02:44:40.343Z,-0.72
2016-12-28T02:45:49.036Z,-0.69
2016-12-28T02:46:57.735Z,-0.67
2016-12-28T02:48:06.432Z,-0.74
2016-12-28T02:49:15.129Z,-0.74
2016-12-28T02:50:23.818Z,-0.7
2016-12-28T02:51:32.515Z,-0.77
2016-12-28T02:52:41.207Z,-0.81
2016-12-28T02:53:49.900Z,-0.8
2016-12-28T02:54:58.617Z,-0.75
2016-12-28T02:56:07.311Z,-0.74
2016-12-28T02:57:16.004Z,-0.8
2016-12-28T02:58:24.703Z,-0.75
2016-12-28T02:59:33.399Z,-0.77
2016-12-28T03:00:42.094Z,-0.87
2016-12-28T03:01:50.817Z,-0.87
2016-12-28T03:02:59.826Z,-0.84
2016-12-28T03:04:08.520Z,-0.91
2016-12-28T03:05:17.223Z,-0.93
2016-12-28T03:06:25.922Z,-0.96
2016-12-28T03:07:34.614Z,-0.94
2016-12-28T03:08:43.306Z,-0.99
2016-12-28T03:09:52.000Z,-0.94
2016-12-28T03:11:00.699Z,-0.87
2016-12-28T03:12:09.395Z,-0.89
2016-12-28T03:13:18.087Z,-0.97
2016-12-28T03:14:26.779Z,-0.85
2016-12-28T03:15:35.473Z,-0.91
2016-12-28T03:16:44.168Z,-0.85
2016-12-28T03:17:52.875Z,-0.82
2016-12-28T03:19:01.565Z,-0.94
2016-12-28T03:20:10.260Z,-0.91
2016-12-28T03:21:18.952Z,-0.84
2016-12-28T03:22:27.698Z,-0.85
2016-12-28T03:23:36.391Z,-0.8
2016-12-28T03:24:45.114Z,-0.89
2016-12-28T03:25:53.825Z,-0.72
2016-12-28T03:27:02.516Z,-0.75
2016-12-28T03:28:11.214Z,-0.77
2016-12-28T03:29:19.914Z,-0.81
2016-12-28T03:30:28.605Z,-0.85
2016-12-28T03:31:37.298Z,-0.81
2016-12-28T03:32:45.993Z,-0.72
2016-12-28T03:33:54.688Z,-0.75
2016-12-28T03:35:03.381Z,-0.81
2016-12-28T03:36:12.085Z,-0.89
2016-12-28T03:37:20.774Z,-0.85
2016-12-28T03:38:29.464Z,-0.85
2016-12-28T03:39:38.162Z,-0.94
2016-12-28T03:40:46.889Z,-0.89
2016-12-28T03:41:55.607Z,-0.84
2016-12-28T03:43:04.300Z,-0.91
2016-12-28T03:44:12.996Z,-0.89
2016-12-28T03:45:21.693Z,-0.89
2016-12-28T03:46:30.381Z,-0.93
2016-12-28T03:47:39.076Z,-0.89
2016-12-28T03:48:47.772Z,-0.84
2016-12-28T03:49:56.467Z,-1
2016-12-28T03:51:05.160Z,-0.91
2016-12-28T03:52:13.855Z,-0.85
2016-12-28T03:53:22.552Z,-0.84
2016-12-28T03:54:31.241Z,-0.78
2016-12-28T03:55:39.939Z,-0.74
2016-12-28T03:56:48.635Z,-0.67
2016-12-28T03:57:57.325Z,-0.64
2016-12-28T03:59:06.025Z,-0.46
2016-12-28T04:00:14.720Z,-0.48
2016-12-28T04:01:23.413Z,-0.49
2016-12-28T04:02:32.105Z,-0.42
2016-12-28T04:03:40.803Z,-0.49
2016-12-28T04:04:49.499Z,-0.41
2016-12-28T04:05:58.192Z,-0.33
2016-12-28T04:07:06.895Z,-0.26
2016-12-28T04:08:15.920Z,-0.15
2016-12-28T04:09:24.615Z,-0.07
2016-12-28T04:10:33.308Z,-0.07
2016-12-28T04:11:42.004Z,-0.09
2016-12-28T04:12:50.694Z,-0.18
2016-12-28T04:13:59.384Z,-0.09
2016-12-28T04:15:08.243Z,-0.12
2016-12-28T04:16:16.945Z,-0.02
2016-12-28T04:17:25.639Z,0.02
2016-12-28T04:18:34.331Z,0.01
2016-12-28T04:19:43.025Z,-0.02
2016-12-28T04:20:51.716Z,0.09
2016-12-28T04:22:00.412Z,0.15
2016-12-28T04:23:09.105Z,0.13
2016-12-28T04:24:17.799Z,0.06
2016-12-28T04:25:26.492Z,0.02
2016-12-28T04:26:35.185Z,0.09
2016-12-28T04:27:43.879Z,0.06
2016-12-28T04:28:52.579Z,0.18
2016-12-28T04:30:01.271Z,0.19
2016-12-28T04:31:09.987Z,0.16
2016-12-28T04:32:18.680Z,0.19
2016-12-28T04:33:27.371Z,0.24
2016-12-28T04:34:36.067Z,0.33
2016-12-28T04:35:44.763Z,0.33
2016-12-28T04:36:53.458Z,0.4
2016-12-28T04:38:02.150Z,0.37
2016-12-28T04:39:10.859Z,0.49
2016-12-28T04:40:19.549Z,0.47
2016-12-28T04:41:28.267Z,0.51
2016-12-28T04:42:36.957Z,0.49
2016-12-28T04:43:45.710Z,0.48
2016-12-28T04:44:54.405Z,0.45
2016-12-28T04:46:03.095Z,0.56
2016-12-28T04:47:11.790Z,0.49
2016-12-28T04:48:20.486Z,0.45
2016-12-28T04:49:29.177Z,0.52
2016-12-28T04:50:37.874Z,0.44
2016-12-28T04:51:46.569Z,0.42
2016-12-28T04:52:55.264Z,0.47
2016-12-28T04:54:03.958Z,0.36
2016-12-28T04:55:12.654Z,0.44
2016-12-28T04:56:21.353Z,0.44
2016-12-28T04:57:30.047Z,0.47
2016-12-28T04:58:38.745Z,0.4
2016-12-28T04:59:47.440Z,0.45
2016-12-28T05:00:56.176Z,0.48
2016-12-28T05:02:04.872Z,0.55
2016-12-28T05:03:13.574Z,0.52
2016-12-28T05:04:22.267Z,0.48
2016-12-28T05:05:30.960Z,0.49
2016-12-28T05:06:39.683Z,0.56
2016-12-28T05:07:48.414Z,0.59
2016-12-28T05:08:57.113Z,0.59
2016-12-28T05:10:05.809Z,0.63
2016-12-28T05:11:14.500Z,0.51
2016-12-28T05:12:23.197Z,0.55
2016-12-28T05:13:31.890Z,0.59
2016-12-28T05:14:40.589Z,0.48
2016-12-28T05:15:49.284Z,0.44
2016-12-28T05:16:57.978Z,0.51
2016-12-28T05:18:06.673Z,0.55
2016-12-28T05:19:15.363Z,0.49
2016-12-28T05:20:24.056Z,0.52
2016-12-28T05:21:32.757Z,0.63
2016-12-28T05:22:41.482Z,0.61
2016-12-28T05:23:50.205Z,0.63
2016-12-28T05:24:58.913Z,0.64
2016-12-28T05:26:07.612Z,0.64
2016-12-28T05:27:16.311Z,0.66
2016-12-28T05:28:25.009Z,0.66
2016-12-28T05:29:33.706Z,0.64
2016-12-28T05:30:42.409Z,0.51
2016-12-28T05:31:51.109Z,0.49
2016-12-28T05:32:59.800Z,0.45
2016-12-28T05:34:08.492Z,0.52
2016-12-28T05:35:17.216Z,0.56
2016-12-28T05:36:25.913Z,0.56
2016-12-28T05:37:34.605Z,0.67
2016-12-28T05:38:43.299Z,0.73
2016-12-28T05:39:51.992Z,0.74
2016-12-28T05:41:00.686Z,0.74
2016-12-28T05:42:09.698Z,0.7
2016-12-28T05:43:18.394Z,0.76
2016-12-28T05:44:27.086Z,0.68
2016-12-28T05:45:35.780Z,0.73
2016-12-28T05:46:44.475Z,0.63
2016-12-28T05:47:53.166Z,0.73
2016-12-28T05:49:01.858Z,0.64
2016-12-28T05:50:10.557Z,0.63
2016-12-28T05:51:19.256Z,0.52
2016-12-28T05:52:27.953Z,0.47
2016-12-28T05:53:36.646Z,0.61
2016-12-28T05:54:45.343Z,0.51
2016-12-28T05:55:54.038Z,0.45
2016-12-28T05:57:02.735Z,0.48
2016-12-28T05:58:11.434Z,0.49
2016-12-28T05:59:20.129Z,0.36
2016-12-28T06:00:28.823Z,0.37
2016-12-28T06:01:37.519Z,0.31
2016-12-28T06:02:46.222Z,0.26
2016-12-28T06:03:55.268Z,0.23
2016-12-28T06:05:03.966Z,0.19
2016-12-28T06:06:12.661Z,0.05
2016-12-28T06:07:21.351Z,0.06
2016-12-28T06:08:30.079Z,-0.03
2016-12-28T06:09:38.770Z,0.12
2016-12-28T06:10:47.462Z,0.02
2016-12-28T06:11:56.159Z,-0.07
2016-12-28T06:13:04.879Z,0.05
2016-12-28T06:14:13.576Z,0.01
2016-12-28T06:15:22.270Z,0.08
2016-12-28T06:16:30.965Z,-0.05
2016-12-28T06:17:39.659Z,-0.02
2016-12-28T06:18:48.356Z,-0.09
2016-12-28T06:19:57.048Z,-0.1
2016-12-28T06:21:05.748Z,-0.07
2016-12-28T06:22:14.447Z,-0.15
2016-12-28T06:23:23.174Z,-0.03
2016-12-28T06:24:31.894Z,-0.1
2016-12-28T06:25:40.589Z,-0.17
2016-12-28T06:26:49.282Z,-0.17
2016-12-28T06:27:57.978Z,-0.05
2016-12-28T06:29:06.672Z,-0.05
2016-12-28T06:30:15.367Z,0
2016-12-28T06:31:24.088Z,-0.1
2016-12-28T06:32:32.776Z,-0.07
2016-12-28T06:33:41.467Z,-0.05
2016-12-28T06:34:50.163Z,0.02
2016-12-28T06:35:58.856Z,0.06
2016-12-28T06:37:07.548Z,0
2016-12-28T06:38:16.241Z,0.01
2016-12-28T06:39:24.932Z,0.06
2016-12-28T06:40:33.637Z,-0.09
2016-12-28T06:41:42.339Z,0.02
2016-12-28T06:42:51.033Z,-0.03
2016-12-28T06:43:59.719Z,-0.15
2016-12-28T06:45:08.420Z,-0.06
2016-12-28T06:46:17.121Z,-0.05
2016-12-28T06:47:25.817Z,0.01
2016-12-28T06:48:34.509Z,-0.03
2016-12-28T06:49:43.204Z,-0.03
2016-12-28T06:50:51.904Z,0
2016-12-28T06:52:00.599Z,0
2016-12-28T06:53:09.318Z,0
2016-12-28T06:54:18.334Z,-0.05
2016-12-28T06:55:27.032Z,0
2016-12-28T06:56:35.722Z,0.06
2016-12-28T06:57:44.415Z,0.08
2016-12-28T06:58:53.143Z,0.08
2016-12-28T07:00:01.838Z,-0.05
2016-12-28T07:01:10.535Z,-0.05
2016-12-28T07:02:19.227Z,0.12
2016-12-28T07:03:27.921Z,0.08
2016-12-28T07:04:36.617Z,0.15
2016-12-28T07:05:45.314Z,0.19
2016-12-28T07:06:54.004Z,0.18
2016-12-28T07:08:02.699Z,0.15
2016-12-28T07:09:11.422Z,0.18
2016-12-28T07:10:20.114Z,0.06
2016-12-28T07:11:28.808Z,0.08
2016-12-28T07:12:37.509Z,0.09
2016-12-28T07:13:46.202Z,0.11
2016-12-28T07:14:54.892Z,0.11
2016-12-28T07:16:03.588Z,0.15
2016-12-28T07:17:12.280Z,0.15
2016-12-28T07:18:20.975Z,0.15
2016-12-28T07:19:29.671Z,0.2
2016-12-28T07:20:38.364Z,0.11
2016-12-28T07:21:47.058Z,0.27
2016-12-28T07:22:55.750Z,0.2
2016-12-28T07:24:04.449Z,0.29
2016-12-28T07:25:13.150Z,0.26
2016-12-28T07:26:21.843Z,0.33
2016-12-28T07:27:30.538Z,0.31
2016-12-28T07:28:39.228Z,0.29
2016-12-28T07:29:47.922Z,0.23
2016-12-28T07:30:56.621Z,0.29
2016-12-28T07:32:05.321Z,0.13
2016-12-28T07:33:14.016Z,0.13
2016-12-28T07:34:22.709Z,0.11
2016-12-28T07:35:31.402Z,0.15
2016-12-28T07:36:40.101Z,0.06
2016-12-28T07:37:48.793Z,0.06
2016-12-28T07:38:57.493Z,0.02
2016-12-28T07:40:06.195Z,0.12
2016-12-28T07:41:14.896Z,0.02
2016-12-28T07:42:23.616Z,0
2016-12-28T07:43:32.308Z,-0.07
2016-12-28T07:44:41.012Z,-0.03
2016-12-28T07:45:49.710Z,-0.07
2016-12-28T07:46:58.407Z,-0.02
2016-12-28T07:48:07.102Z,-0.07
2016-12-28T07:49:15.791Z,-0.13
2016-12-28T07:50:24.485Z,-0.15
2016-12-28T07:51:33.180Z,-0.1
2016-12-28T07:52:41.876Z,-0.1
2016-12-28T07:53:50.566Z,-0.13
2016-12-28T07:54:59.257Z,-0.13
2016-12-28T07:56:07.957Z,-0.07
2016-12-28T07:57:16.653Z,-0.1
2016-12-28T07:58:25.345Z,-0.09
2016-12-28T07:59:34.042Z,-0.06
2016-12-28T08:00:42.738Z,-0.17
2016-12-28T08:01:51.432Z,-0.07
2016-12-28T08:03:00.129Z,-0.1
2016-12-28T08:04:08.826Z,-0.09
2016-12-28T08:05:17.521Z,-0.12
2016-12-28T08:06:26.223Z,-0.18
2016-12-28T08:07:34.918Z,-0.18
2016-12-28T08:08:43.613Z,-0.23
2016-12-28T08:09:52.310Z,-0.28
2016-12-28T08:11:01.003Z,-0.21
2016-12-28T08:12:09.715Z,-0.21
2016-12-28T08:13:18.436Z,-0.2
2016-12-28T08:14:27.140Z,-0.21
2016-12-28T08:15:35.838Z,-0.2
2016-12-28T08:16:44.527Z,-0.17
2016-12-28T08:17:53.224Z,-0.2
2016-12-28T08:19:01.915Z,-0.24
2016-12-28T08:20:10.615Z,-0.17
2016-12-28T08:21:19.341Z,-0.28
2016-12-28T08:22:28.032Z,-0.31
2016-12-28T08:23:36.729Z,-0.18
2016-12-28T08:24:45.424Z,-0.24
2016-12-28T08:25:54.118Z,-0.21
2016-12-28T08:27:02.808Z,-0.15
2016-12-28T08:28:11.506Z,-0.21
2016-12-28T08:29:20.200Z,-0.18
2016-12-28T08:30:28.894Z,-0.2
2016-12-28T08:31:37.592Z,-0.2
2016-12-28T08:32:46.286Z,-0.33
2016-12-28T08:33:54.985Z,-0.3
2016-12-28T08:35:03.684Z,-0.28
2016-12-28T08:36:12.379Z,-0.28
2016-12-28T08:37:21.075Z,-0.3
2016-12-28T08:38:29.772Z,-0.31
2016-12-28T08:39:38.490Z,-0.36
2016-12-28T08:40:47.181Z,-0.28
2016-12-28T08:41:55.876Z,-0.31
2016-12-28T08:43:04.580Z,-0.23
2016-12-28T08:44:13.593Z,-0.3
2016-12-28T08:45:22.323Z,-0.3
2016-12-28T08:46:31.017Z,-0.18
2016-12-28T08:47:39.713Z,-0.18
2016-12-28T08:48:48.408Z,-0.2
2016-12-28T08:49:57.159Z,-0.3
2016-12-28T08:51:05.849Z,-0.23
2016-12-28T08:52:14.541Z,-0.28
2016-12-28T08:53:23.234Z,-0.28
2016-12-28T08:54:31.951Z,-0.35
2016-12-28T08:55:40.643Z,-0.36
2016-12-28T08:56:49.335Z,-0.18
2016-12-28T08:57:58.028Z,-0.18
2016-12-28T08:59:06.724Z,-0.31
2016-12-28T09:00:15.418Z,-0.18
2016-12-28T09:01:24.166Z,-0.17
2016-12-28T09:02:32.861Z,-0.31
2016-12-28T09:03:41.554Z,-0.28
2016-12-28T09:04:50.244Z,-0.28
2016-12-28T09:05:59.262Z,-0.28
2016-12-28T09:07:07.969Z,-0.23
2016-12-28T09:08:16.665Z,-0.2
2016-12-28T09:09:25.358Z,-0.13
2016-12-28T09:10:34.054Z,-0.06
2016-12-28T09:11:42.745Z,-0.05
2016-12-28T09:12:51.446Z,-0.17
2016-12-28T09:14:00.142Z,-0.05
2016-12-28T09:15:08.839Z,-0.12
2016-12-28T09:16:17.529Z,-0.09
2016-12-28T09:17:26.222Z,-0.05
2016-12-28T09:18:34.928Z,-0.06
2016-12-28T09:19:43.682Z,-0.13
2016-12-28T09:20:52.377Z,-0.17
2016-12-28T09:22:01.076Z,-0.07
2016-12-28T09:23:09.773Z,-0.18
2016-12-28T09:24:18.469Z,-0.1
2016-12-28T09:25:27.188Z,-0.07
2016-12-28T09:26:35.881Z,-0.06
2016-12-28T09:27:44.574Z,-0.03
2016-12-28T09:28:53.265Z,0.02
2016-12-28T09:30:01.956Z,-0.07
2016-12-28T09:31:10.653Z,-0.06
2016-12-28T09:32:19.347Z,-0.07
2016-12-28T09:33:28.075Z,-0.09
2016-12-28T09:34:36.770Z,0.01
2016-12-28T09:35:45.487Z,0.05
2016-12-28T09:36:54.178Z,0.01
2016-12-28T09:38:02.873Z,-0.03
2016-12-28T09:39:11.567Z,-0.03
2016-12-28T09:40:20.286Z,0.05
2016-12-28T09:41:29.015Z,-0.09
2016-12-28T09:42:37.709Z,0.09
2016-12-28T09:43:46.401Z,0.06
2016-12-28T09:44:55.098Z,0.06
2016-12-28T09:46:03.792Z,0.13
2016-12-28T09:47:12.489Z,-0.02
2016-12-28T09:48:21.183Z,-0.06
2016-12-28T09:49:29.874Z,-0.03
2016-12-28T09:50:38.567Z,0.06
2016-12-28T09:51:47.271Z,0.02
2016-12-28T09:52:56.283Z,0.06
2016-12-28T09:54:04.973Z,0.09
2016-12-28T09:55:13.663Z,0.09
2016-12-28T09:56:22.360Z,0.08
2016-12-28T09:57:31.056Z,0.05
2016-12-28T09:58:39.752Z,0.12
2016-12-28T09:59:48.450Z,0.05
2016-12-28T10:00:57.143Z,0.11
2016-12-28T10:02:05.843Z,0.02
2016-12-28T10:03:14.542Z,0.02
2016-12-28T10:04:23.241Z,0.02
2016-12-28T10:05:31.938Z,0.09
2016-12-28T10:06:40.689Z,0.06
2016-12-28T10:07:49.380Z,0.05
2016-12-28T10:08:58.079Z,-0.02
2016-12-28T10:10:06.781Z,0.08
2016-12-28T10:11:15.483Z,0.05
2016-12-28T10:12:24.180Z,-0.09
2016-12-28T10:13:32.872Z,0.01
2016-12-28T10:14:41.571Z,-0.02
2016-12-28T10:15:50.268Z,0.08
2016-12-28T10:16:58.961Z,-0.09
2016-12-28T10:18:07.982Z,0.02
2016-12-28T10:19:16.681Z,-0.02
2016-12-28T10:20:25.378Z,0.05
2016-12-28T10:21:34.069Z,0.09
2016-12-28T10:22:42.767Z,0.12
2016-12-28T10:23:51.472Z,0.12
2016-12-28T10:25:00.172Z,0.09
2016-12-28T10:26:08.867Z,0.18
2016-12-28T10:27:17.561Z,0.12
2016-12-28T10:28:26.256Z,0.18
2016-12-28T10:29:34.953Z,0.15
2016-12-28T10:30:43.651Z,0.2
2016-12-28T10:31:52.351Z,0.18
2016-12-28T10:33:01.073Z,0.11
2016-12-28T10:34:09.765Z,0.01
2016-12-28T10:35:18.459Z,-0.12
2016-12-28T10:36:27.466Z,0
2016-12-28T10:37:36.169Z,-0.03
2016-12-28T10:38:44.985Z,-0.07
2016-12-28T10:39:53.680Z,-0.03
2016-12-28T10:41:02.377Z,-0.17
2016-12-28T10:42:11.071Z,-0.05
2016-12-28T10:43:19.767Z,-0.1
2016-12-28T10:44:28.511Z,-0.1
2016-12-28T10:45:37.519Z,-0.05
2016-12-28T10:46:46.216Z,-0.03
2016-12-28T10:47:54.914Z,-0.09
2016-12-28T10:49:03.607Z,-0.09
2016-12-28T10:50:12.331Z,-0.2
2016-12-28T10:51:21.026Z,-0.1
2016-12-28T10:52:29.718Z,-0.03
2016-12-28T10:53:38.412Z,-0.15
2016-12-28T10:54:47.105Z,-0.21
2016-12-28T10:55:55.798Z,-0.21
2016-12-28T10:57:04.506Z,-0.2
2016-12-28T10:58:13.233Z,-0.21
2016-12-28T10:59:21.926Z,-0.2
2016-12-28T11:00:30.627Z,-0.18
2016-12-28T11:01:39.321Z,-0.18
2016-12-28T11:02:48.025Z,-0.18
2016-12-28T11:03:56.719Z,-0.15
2016-12-28T11:05:05.419Z,-0.13
2016-12-28T11:06:14.115Z,-0.13
2016-12-28T11:07:22.846Z,-0.18
2016-12-28T11:08:31.543Z,-0.13
2016-12-28T11:09:40.558Z,-0.1
2016-12-28T11:10:49.277Z,-0.17
2016-12-28T11:11:57.999Z,-0.12
2016-12-28T11:13:06.701Z,-0.1
2016-12-28T11:14:15.725Z,-0.09
2016-12-28T11:15:24.425Z,-0.1
2016-12-28T11:16:33.120Z,-0.15
2016-12-28T11:17:41.831Z,-0.12
2016-12-28T11:18:50.524Z,-0.07
2016-12-28T11:19:59.223Z,-0.07
2016-12-28T11:21:07.928Z,-0.17
2016-12-28T11:22:16.630Z,-0.23
2016-12-28T11:23:25.327Z,-0.21
2016-12-28T11:24:34.027Z,-0.2
2016-12-28T11:25:42.727Z,-0.17
2016-12-28T11:26:51.453Z,-0.13
2016-12-28T11:28:00.146Z,-0.2
2016-12-28T11:29:08.853Z,-0.15
2016-12-28T11:30:17.546Z,-0.09
2016-12-28T11:31:26.243Z,-0.18
2016-12-28T11:32:34.941Z,-0.05
2016-12-28T11:33:43.639Z,-0.03
2016-12-28T11:34:52.337Z,-0.1
2016-12-28T11:36:01.347Z,0.09
2016-12-28T11:37:10.042Z,0.06
2016-12-28T11:38:18.736Z,-0.06
2016-12-28T11:39:27.447Z,-0.05
2016-12-28T11:40:36.146Z,-0.05
2016-12-28T11:41:44.853Z,0
2016-12-28T11:42:53.551Z,-0.03
2016-12-28T11:44:02.242Z,-0.06
2016-12-28T11:45:10.941Z,-0.07
2016-12-28T11:46:19.639Z,-0.02
2016-12-28T11:47:28.365Z,0
2016-12-28T11:48:37.061Z,-0.09
2016-12-28T11:49:46.086Z,-0.02
2016-12-28T11:50:54.786Z,-0.05
2016-12-28T11:52:03.480Z,0
2016-12-28T11:53:12.173Z,0
2016-12-28T11:54:20.867Z,0
2016-12-28T11:55:29.567Z,-0.03
2016-12-28T11:56:38.258Z,0
2016-12-28T11:57:46.956Z,0.06
2016-12-28T11:58:55.647Z,0.18
2016-12-28T12:00:04.341Z,0.29
2016-12-28T12:01:13.039Z,0.31
2016-12-28T12:02:21.753Z,0.31
2016-12-28T12:03:30.444Z,0.44
2016-12-28T12:04:39.170Z,0.4
2016-12-28T12:05:47.861Z,0.47
2016-12-28T12:06:56.550Z,0.45
2016-12-28T12:08:05.241Z,0.59
2016-12-28T12:09:13.944Z,0.52
2016-12-28T12:10:22.644Z,0.51
2016-12-28T12:11:31.339Z,0.59
2016-12-28T12:12:40.056Z,0.7
2016-12-28T12:13:48.756Z,0.78
2016-12-28T12:14:57.454Z,0.84
2016-12-28T12:16:06.150Z,0.94
2016-12-28T12:17:14.846Z,0.96
2016-12-28T12:18:23.540Z,1
2016-12-28T12:19:32.240Z,1.07
2016-12-28T12:20:40.936Z,1.12
2016-12-28T12:21:49.642Z,1.16
2016-12-28T12:22:58.366Z,1.27
2016-12-28T12:24:07.085Z,1.22
2016-12-28T12:25:15.783Z,1.25
2016-12-28T12:26:24.521Z,1.22
2016-12-28T12:27:33.214Z,1.32
2016-12-28T12:28:41.911Z,1.31
2016-12-28T12:29:50.622Z,1.3
2016-12-28T12:30:59.351Z,1.43
2016-12-28T12:32:08.049Z,1.49
2016-12-28T12:33:16.747Z,1.53
2016-12-28T12:34:25.447Z,1.56
2016-12-28T12:35:34.141Z,1.6
2016-12-28T12:36:42.840Z,1.57
2016-12-28T12:37:51.531Z,1.57
2016-12-28T12:39:00.228Z,1.64
2016-12-28T12:40:08.959Z,1.67
2016-12-28T12:41:17.658Z,1.79
2016-12-28T12:42:26.357Z,1.71
2016-12-28T12:43:35.054Z,1.7
2016-12-28T12:44:43.753Z,1.7
2016-12-28T12:45:52.448Z,1.67
2016-12-28T12:47:01.144Z,1.71
2016-12-28T12:48:09.866Z,1.76
2016-12-28T12:49:18.564Z,1.67
2016-12-28T12:50:27.266Z,1.68
2016-12-28T12:51:35.960Z,1.7
2016-12-28T12:52:44.676Z,1.6
2016-12-28T12:53:53.375Z,1.6
2016-12-28T12:55:02.075Z,1.58
2016-12-28T12:56:10.775Z,1.52
2016-12-28T12:57:19.486Z,1.38
2016-12-28T12:58:28.184Z,1.21
2016-12-28T12:59:36.884Z,1.03
2016-12-28T13:00:45.580Z,0.94
2016-12-28T13:01:54.277Z,0.85
2016-12-28T13:03:03.002Z,0.82
2016-12-28T13:04:11.740Z,0.73
2016-12-28T13:05:20.444Z,0.64
2016-12-28T13:06:29.142Z,0.49
2016-12-28T13:07:37.846Z,0.58
2016-12-28T13:08:46.549Z,0.49
2016-12-28T13:09:55.244Z,0.45
2016-12-28T13:11:03.971Z,0.4
2016-12-28T13:12:12.666Z,0.47
2016-12-28T13:13:21.358Z,0.45
2016-12-28T13:14:30.061Z,0.47
2016-12-28T13:15:38.762Z,0.45
2016-12-28T13:16:47.459Z,0.44
2016-12-28T13:17:56.158Z,0.37
2016-12-28T13:19:04.858Z,0.42
2016-12-28T13:20:13.550Z,0.36
2016-12-28T13:21:22.246Z,0.39
2016-12-28T13:22:30.939Z,0.34
2016-12-28T13:23:39.638Z,0.26
2016-12-28T13:24:48.333Z,0.31
2016-12-28T13:25:57.031Z,0.3
2016-12-28T13:27:05.732Z,0.3
2016-12-28T13:28:14.424Z,0.29
2016-12-28T13:29:23.121Z,0.16
2016-12-28T13:30:31.823Z,0.09
2016-12-28T13:31:40.522Z,0.18
2016-12-28T13:32:49.229Z,0.06
2016-12-28T13:33:57.923Z,0.11
2016-12-28T13:35:06.617Z,0.06
2016-12-28T13:36:15.315Z,0
2016-12-28T13:37:24.011Z,-0.13
2016-12-28T13:38:32.707Z,-0.1
2016-12-28T13:39:41.406Z,-0.15
2016-12-28T13:40:50.102Z,-0.21
2016-12-28T13:41:59.194Z,-0.33
2016-12-28T13:43:07.901Z,-0.33
2016-12-28T13:44:16.628Z,-0.41
2016-12-28T13:45:25.320Z,-0.42
2016-12-28T13:46:34.021Z,-0.53
2016-12-28T13:47:42.714Z,-0.6
2016-12-28T13:48:51.412Z,-0.57
2016-12-28T13:50:00.110Z,-0.62
2016-12-28T13:51:08.811Z,-0.6
2016-12-28T13:52:17.506Z,-0.66
2016-12-28T13:53:26.203Z,-0.64
2016-12-28T13:54:34.896Z,-0.77
2016-12-28T13:55:43.591Z,-0.72
2016-12-28T13:56:52.286Z,-0.85
2016-12-28T13:58:00.990Z,-0.77
2016-12-28T13:59:09.686Z,-0.84
2016-12-28T14:00:18.377Z,-0.78
2016-12-28T14:01:27.069Z,-0.84
2016-12-28T14:02:35.763Z,-0.78
2016-12-28T14:03:44.453Z,-0.78
2016-12-28T14:04:53.144Z,-0.78
2016-12-28T14:06:01.839Z,-0.77
2016-12-28T14:07:10.534Z,-0.81
2016-12-28T14:08:19.232Z,-0.82
2016-12-28T14:09:27.925Z,-0.74
2016-12-28T14:10:36.627Z,-0.72
2016-12-28T14:11:45.336Z,-0.81
2016-12-28T14:12:54.031Z,-0.81
2016-12-28T14:14:02.728Z,-0.81
2016-12-28T14:15:11.454Z,-0.74
2016-12-28T14:16:20.152Z,-0.74
2016-12-28T14:17:28.844Z,-0.74
2016-12-28T14:18:37.537Z,-0.77
2016-12-28T14:19:46.227Z,-0.7
2016-12-28T14:20:54.921Z,-0.75
2016-12-28T14:22:03.616Z,-0.69
2016-12-28T14:23:12.309Z,-0.74
2016-12-28T14:24:21.004Z,-0.77
2016-12-28T14:25:29.699Z,-0.7
2016-12-28T14:26:38.390Z,-0.8
2016-12-28T14:27:47.084Z,-0.72
2016-12-28T14:28:55.780Z,-0.77
2016-12-28T14:30:04.479Z,-0.66
2016-12-28T14:31:13.171Z,-0.75
2016-12-28T14:32:21.867Z,-0.74
2016-12-28T14:33:30.564Z,-0.72
2016-12-28T14:34:39.263Z,-0.77
2016-12-28T14:35:47.960Z,-0.72
2016-12-28T14:36:56.653Z,-0.72
2016-12-28T14:38:05.344Z,-0.64
2016-12-28T14:39:14.036Z,-0.77
2016-12-28T14:40:22.740Z,-0.7
2016-12-28T14:41:31.448Z,-0.72
2016-12-28T14:42:40.138Z,-0.72
2016-12-28T14:43:48.828Z,-0.72
2016-12-28T14:44:57.526Z,-0.75
2016-12-28T14:46:06.222Z,-0.69
2016-12-28T14:47:14.915Z,-0.67
2016-12-28T14:48:23.608Z,-0.75
2016-12-28T14:49:32.317Z,-0.8
2016-12-28T14:50:41.012Z,-0.77
2016-12-28T14:51:49.706Z,-0.78
2016-12-28T14:52:58.397Z,-0.8
2016-12-28T14:54:07.094Z,-0.84
2016-12-28T14:55:15.792Z,-0.87
2016-12-28T14:56:24.481Z,-0.85
2016-12-28T14:57:33.175Z,-0.93
2016-12-28T14:58:41.865Z,-0.96
2016-12-28T14:59:50.556Z,-1
2016-12-28T15:00:59.255Z,-0.84
2016-12-28T15:02:07.951Z,-0.84
2016-12-28T15:03:16.641Z,-0.81
2016-12-28T15:04:25.330Z,-0.8
2016-12-28T15:05:34.024Z,-0.75